createdAt,value
2023-02-03T00:00:53.345Z,11.82
2023-02-03T00:03:25.604Z,11.82
2023-02-03T00:05:57.803Z,11.60
2023-02-03T00:08:30.645Z,11.63
2023-02-03T00:11:02.829Z,10.82
2023-02-03T00:13:36.095Z,10.45
2023-02-03T00:16:08.319Z,10.10
2023-02-03T00:18:49.529Z,9.85
2023-02-03T00:21:21.691Z,9.68
2023-02-03T00:24:18.641Z,10.73
2023-02-03T00:26:50.704Z,8.20
2023-02-03T00:29:25.957Z,9.32
2023-02-03T00:35:34.580Z,9.55
2023-02-03T00:38:06.833Z,9.18
2023-02-03T00:40:59.297Z,10.15
2023-02-03T00:43:31.756Z,9.27
2023-02-03T00:46:04.388Z,8.18
2023-02-03T00:51:29.104Z,8.48
2023-02-03T00:54:01.296Z,8.88
2023-02-03T00:56:34.705Z,8.07
2023-02-03T00:59:07.127Z,7.90
2023-02-03T01:01:41.121Z,8.20
2023-02-03T01:04:13.551Z,6.40
2023-02-03T01:06:45.581Z,7.20
2023-02-03T01:09:19.208Z,6.70
2023-02-03T01:11:51.379Z,6.18
2023-02-03T01:14:23.404Z,6.88
2023-02-03T01:16:55.681Z,6.60
2023-02-03T01:22:42.255Z,6.68
2023-02-03T01:25:14.490Z,6.80
2023-02-03T01:27:46.754Z,6.38
2023-02-03T01:30:19.705Z,6.05
2023-02-03T01:32:58.071Z,5.40
2023-02-03T01:35:30.145Z,5.38
2023-02-03T01:38:02.123Z,5.57
2023-02-03T01:40:34.220Z,4.88
2023-02-03T01:43:08.599Z,7.03
2023-02-03T01:46:20.254Z,5.85
2023-02-03T01:48:55.691Z,5.25
2023-02-03T01:51:28.003Z,5.78
2023-02-03T01:58:06.781Z,6.00
2023-02-03T02:00:39.226Z,6.88
2023-02-03T02:03:21.451Z,6.07
2023-02-03T02:06:04.508Z,6.32
2023-02-03T02:08:37.934Z,6.10
2023-02-03T02:11:20.355Z,6.97
2023-02-03T02:13:56.730Z,7.88
2023-02-03T02:16:53.508Z,7.53
2023-02-03T02:20:20.676Z,7.60
2023-02-03T02:23:42.709Z,7.35
2023-02-03T02:26:40.505Z,7.18
2023-02-03T02:29:39.961Z,6.95
2023-02-03T02:32:29.177Z,7.37
2023-02-03T02:35:40.056Z,7.82
2023-02-03T02:38:40.182Z,6.53
2023-02-03T02:41:44.384Z,6.82
2023-02-03T02:44:52.197Z,6.05
2023-02-03T02:50:46.371Z,6.25
2023-02-03T02:53:22.597Z,5.57
2023-02-03T02:55:57.369Z,6.30
2023-02-03T02:58:32.338Z,5.53
2023-02-03T03:01:05.548Z,4.85
2023-02-03T03:03:46.619Z,4.78
2023-02-03T03:06:31.877Z,5.18
2023-02-03T03:09:13.307Z,5.07
2023-02-03T03:11:54.913Z,5.65
2023-02-03T03:14:30.607Z,4.72
2023-02-03T03:20:13.013Z,4.97
2023-02-03T03:22:53.055Z,4.35
2023-02-03T03:25:41.241Z,4.50
2023-02-03T03:28:24.976Z,4.55
2023-02-03T03:30:57.706Z,5.60
2023-02-03T03:33:30.086Z,5.07
2023-02-03T03:36:39.196Z,4.60
2023-02-03T03:39:47.575Z,5.97
2023-02-03T03:42:47.610Z,5.20
2023-02-03T03:45:55.995Z,5.10
2023-02-03T03:48:41.754Z,4.97
2023-02-03T03:51:50.077Z,5.30
2023-02-03T03:54:25.592Z,5.05
2023-02-03T03:57:17.862Z,5.22
2023-02-03T03:59:50.946Z,5.35
2023-02-03T04:02:23.876Z,4.68
2023-02-03T04:04:58.558Z,5.18
2023-02-03T04:07:44.436Z,5.45
2023-02-03T04:10:41.364Z,4.97
2023-02-03T04:13:13.527Z,5.13
2023-02-03T04:15:57.941Z,5.88
2023-02-03T04:18:30.005Z,5.85
2023-02-03T04:21:01.964Z,5.50
2023-02-03T04:23:33.933Z,5.15
2023-02-03T04:26:05.957Z,4.90
2023-02-03T04:28:37.917Z,5.47
2023-02-03T04:31:43.972Z,5.70
2023-02-03T04:34:15.804Z,5.60
2023-02-03T04:36:50.965Z,6.28
2023-02-03T04:39:22.977Z,5.65
2023-02-03T04:41:55.154Z,6.25
2023-02-03T04:47:14.761Z,6.25
2023-02-03T04:49:47.311Z,6.30
2023-02-03T04:52:19.320Z,6.05
2023-02-03T04:54:51.433Z,5.43
2023-02-03T04:57:23.715Z,5.13
2023-02-03T05:01:02.011Z,6.10
2023-02-03T05:03:34.580Z,4.45
2023-02-03T05:06:07.085Z,5.85
2023-02-03T05:08:39.243Z,5.97
2023-02-03T05:11:11.194Z,4.97
2023-02-03T05:13:45.512Z,4.70
2023-02-03T05:16:31.496Z,4.70
2023-02-03T05:19:03.814Z,4.68
2023-02-03T05:21:36.017Z,4.53
2023-02-03T05:24:08.593Z,4.65
2023-02-03T05:26:40.576Z,4.40
2023-02-03T05:29:12.584Z,6.18
2023-02-03T05:31:51.077Z,4.70
2023-02-03T05:34:23.192Z,5.45
2023-02-03T05:36:55.182Z,5.05
2023-02-03T05:39:28.770Z,4.38
2023-02-03T05:42:00.847Z,5.60
2023-02-03T05:44:32.881Z,4.68
2023-02-03T05:47:07.870Z,4.88
2023-02-03T05:49:40.537Z,4.63
2023-02-03T05:52:12.546Z,4.78
2023-02-03T05:54:44.507Z,5.57
2023-02-03T05:57:18.368Z,5.72
2023-02-03T06:02:39.890Z,5.10
2023-02-03T06:05:11.862Z,5.28
2023-02-03T06:07:43.780Z,5.38
2023-02-03T06:10:16.661Z,4.80
2023-02-03T06:15:39.742Z,5.97
2023-02-03T06:18:11.717Z,5.75
2023-02-03T06:20:43.746Z,6.13
2023-02-03T06:23:17.252Z,6.20
2023-02-03T06:25:50.977Z,5.72
2023-02-03T06:28:23.095Z,5.38
2023-02-03T06:30:55.166Z,5.38
2023-02-03T06:33:27.293Z,5.68
2023-02-03T06:35:59.829Z,6.65
2023-02-03T06:38:31.820Z,6.50
2023-02-03T06:41:03.905Z,5.30
2023-02-03T06:43:49.335Z,5.53
2023-02-03T06:46:21.402Z,5.53
2023-02-03T06:48:53.342Z,5.38
2023-02-03T06:51:25.369Z,5.68
2023-02-03T06:53:58.863Z,5.38
2023-02-03T06:56:31.405Z,5.07
2023-02-03T06:59:03.722Z,5.40
2023-02-03T07:01:36.632Z,4.65
2023-02-03T07:04:08.934Z,4.68
2023-02-03T07:06:40.923Z,4.32
2023-02-03T07:09:13.048Z,4.13
2023-02-03T07:11:46.751Z,4.97
2023-02-03T07:14:18.941Z,5.45
2023-02-03T07:16:51.021Z,6.72
2023-02-03T07:19:23.142Z,4.10
2023-02-03T07:21:55.231Z,4.40
2023-02-03T07:24:27.247Z,4.85
2023-02-03T07:27:06.788Z,4.95
2023-02-03T07:29:40.994Z,4.55
2023-02-03T07:32:13.127Z,3.25
2023-02-03T07:34:45.154Z,4.07
2023-02-03T07:37:17.353Z,3.88
2023-02-03T07:39:50.692Z,3.25
2023-02-03T07:42:22.952Z,3.78
2023-02-03T07:44:54.881Z,4.45
2023-02-03T07:47:26.966Z,3.58
2023-02-03T07:49:58.902Z,6.15
2023-02-03T07:52:31.000Z,3.90
2023-02-03T07:55:03.415Z,4.07
2023-02-03T07:58:24.571Z,3.78
2023-02-03T08:00:57.921Z,3.67
2023-02-03T08:03:30.035Z,4.72
2023-02-03T08:06:02.107Z,3.40
2023-02-03T08:08:34.231Z,4.20
2023-02-03T08:14:05.024Z,4.28
2023-02-03T08:16:37.062Z,3.85
2023-02-03T08:19:09.077Z,4.13
2023-02-03T08:21:51.484Z,3.92
2023-02-03T08:24:23.763Z,3.60
2023-02-03T08:26:55.753Z,3.33
2023-02-03T08:29:27.814Z,4.03
2023-02-03T08:32:00.077Z,4.45
2023-02-03T08:34:50.631Z,3.72
2023-02-03T08:37:24.893Z,4.40
2023-02-03T08:39:59.044Z,3.20
2023-02-03T08:42:31.098Z,3.25
2023-02-03T08:45:05.176Z,3.35
2023-02-03T08:47:38.325Z,5.57
2023-02-03T08:50:11.861Z,4.82
2023-02-03T08:52:43.800Z,3.47
2023-02-03T08:55:17.998Z,3.85
2023-02-03T08:57:50.131Z,3.80
2023-02-03T09:00:22.778Z,4.80
2023-02-03T09:02:54.763Z,4.20
2023-02-03T09:05:26.828Z,4.15
2023-02-03T09:11:02.902Z,3.50
2023-02-03T09:13:35.096Z,3.20
2023-02-03T09:16:08.412Z,3.35
2023-02-03T09:18:40.759Z,4.43
2023-02-03T09:21:23.829Z,3.78
2023-02-03T09:24:04.750Z,4.47
2023-02-03T09:26:36.783Z,3.67
2023-02-03T09:29:08.830Z,4.05
2023-02-03T09:31:40.946Z,3.53
2023-02-03T09:35:23.857Z,4.95
2023-02-03T09:37:56.000Z,3.58
2023-02-03T09:40:34.212Z,6.35
2023-02-03T09:43:29.650Z,4.63
2023-02-03T09:46:07.533Z,4.13
2023-02-03T09:48:47.542Z,5.85
2023-02-03T09:51:30.101Z,3.65
2023-02-03T09:54:44.994Z,3.83
2023-02-03T09:57:29.191Z,5.60
2023-02-03T10:00:20.522Z,4.28
2023-02-03T10:02:57.424Z,4.13
2023-02-03T10:06:28.217Z,4.93
2023-02-03T10:09:46.682Z,4.18
2023-02-03T10:12:28.821Z,5.10
2023-02-03T10:15:34.681Z,5.10
2023-02-03T10:18:25.179Z,5.18
2023-02-03T10:21:04.445Z,8.18
2023-02-03T10:23:44.287Z,4.45
2023-02-03T10:26:27.365Z,4.90
2023-02-03T10:29:27.943Z,6.72
2023-02-03T10:32:00.655Z,6.05
2023-02-03T10:34:33.011Z,7.47
2023-02-03T10:37:23.495Z,5.75
2023-02-03T10:39:57.297Z,5.63
2023-02-03T10:42:51.418Z,5.40
2023-02-03T10:45:27.987Z,9.55
2023-02-03T10:48:00.404Z,7.13
2023-02-03T10:50:32.434Z,6.03
2023-02-03T10:53:33.276Z,8.32
2023-02-03T10:56:13.410Z,6.35
2023-02-03T10:58:58.679Z,5.93
2023-02-03T11:01:48.375Z,6.88
2023-02-03T11:04:41.584Z,6.57
2023-02-03T11:07:30.520Z,5.82
2023-02-03T11:10:02.729Z,5.78
2023-02-03T11:12:34.707Z,7.90
2023-02-03T11:15:08.760Z,5.45
2023-02-03T11:17:44.778Z,6.15
2023-02-03T11:20:17.876Z,6.60
2023-02-03T11:22:50.955Z,5.35
2023-02-03T11:25:32.705Z,6.53
2023-02-03T11:28:08.223Z,6.03
2023-02-03T11:30:40.377Z,5.18
2023-02-03T11:33:20.304Z,5.22
2023-02-03T11:36:02.805Z,6.00
2023-02-03T11:38:42.404Z,5.53
2023-02-03T11:41:23.953Z,4.50
2023-02-03T11:43:56.386Z,5.32
2023-02-03T11:46:51.042Z,5.82
2023-02-03T11:49:31.878Z,6.72
2023-02-03T11:52:36.944Z,6.18
2023-02-03T11:55:53.418Z,6.53
2023-02-03T11:59:09.570Z,7.10
2023-02-03T12:02:00.404Z,5.28
2023-02-03T12:05:08.214Z,9.55
2023-02-03T12:08:05.989Z,6.30
2023-02-03T12:11:05.336Z,4.78
2023-02-03T12:14:18.154Z,5.72
2023-02-03T12:17:05.016Z,4.35
2023-02-03T12:20:00.424Z,5.15
2023-02-03T12:23:19.135Z,4.85
2023-02-03T12:26:11.627Z,4.15
2023-02-03T12:29:02.247Z,4.57
2023-02-03T12:31:51.771Z,9.63
2023-02-03T12:34:49.967Z,6.00
2023-02-03T12:37:42.673Z,6.10
2023-02-03T12:40:23.905Z,6.72
2023-02-03T12:49:14.112Z,4.90
2023-02-03T12:51:54.011Z,5.13
2023-02-03T12:54:40.908Z,5.38
2023-02-03T12:57:29.739Z,5.05
2023-02-03T13:00:29.674Z,5.15
2023-02-03T13:03:39.066Z,6.45
2023-02-03T13:06:39.828Z,5.93
2023-02-03T13:12:47.897Z,4.35
2023-02-03T13:15:33.069Z,4.60
2023-02-03T13:18:28.243Z,5.63
2023-02-03T13:21:00.440Z,4.30
2023-02-03T13:23:33.078Z,5.55
2023-02-03T13:26:32.131Z,4.78
2023-02-03T13:29:19.842Z,5.60
2023-02-03T13:32:40.291Z,5.15
2023-02-03T13:35:34.778Z,5.18
2023-02-03T13:38:53.048Z,4.82
2023-02-03T13:41:39.547Z,4.95
2023-02-03T13:44:23.117Z,5.13
2023-02-03T13:46:58.205Z,5.38
2023-02-03T13:49:34.886Z,4.97
2023-02-03T13:52:06.880Z,5.68
2023-02-03T13:54:44.335Z,4.50
2023-02-03T13:57:34.567Z,5.78
2023-02-03T14:00:43.698Z,7.50
2023-02-03T14:03:19.402Z,4.68
2023-02-03T14:06:01.269Z,5.57
2023-02-03T14:08:33.365Z,5.00
2023-02-03T14:11:36.500Z,4.43
2023-02-03T14:14:08.371Z,5.38
2023-02-03T14:16:47.773Z,6.55
2023-02-03T14:19:22.683Z,5.63
2023-02-03T14:22:05.942Z,4.68
2023-02-03T14:24:44.437Z,5.18
2023-02-03T14:27:40.993Z,5.05
2023-02-03T14:30:28.692Z,4.65
2023-02-03T14:33:04.846Z,4.18
2023-02-03T14:35:42.661Z,4.78
2023-02-03T14:38:20.132Z,5.63
2023-02-03T14:41:06.809Z,4.65
2023-02-03T14:44:02.611Z,5.72
2023-02-03T14:47:26.869Z,4.35
2023-02-03T14:50:37.908Z,4.50
2023-02-03T14:53:29.862Z,5.35
2023-02-03T14:57:18.947Z,4.93
2023-02-03T14:59:55.092Z,4.28
2023-02-03T15:02:31.847Z,5.22
2023-02-03T15:06:02.530Z,5.25
2023-02-03T15:08:47.236Z,4.32
2023-02-03T15:11:33.745Z,4.57
2023-02-03T15:14:27.503Z,4.85
2023-02-03T15:17:02.848Z,5.55
2023-02-03T15:19:56.482Z,4.97
2023-02-03T15:22:30.900Z,4.50
2023-02-03T15:25:04.517Z,5.10
2023-02-03T15:28:17.284Z,4.53
2023-02-03T15:31:19.257Z,5.13
2023-02-03T15:33:53.642Z,5.85
2023-02-03T15:36:39.236Z,5.13
2023-02-03T15:39:43.047Z,5.95
2023-02-03T15:42:29.667Z,5.50
2023-02-03T15:45:27.214Z,4.70
2023-02-03T15:48:59.620Z,4.65
2023-02-03T15:51:51.865Z,6.70
2023-02-03T15:54:41.176Z,5.20
2023-02-03T15:57:30.168Z,4.88
2023-02-03T16:00:20.304Z,6.05
2023-02-03T16:02:55.924Z,6.13
2023-02-03T16:05:33.387Z,6.20
2023-02-03T16:08:40.719Z,5.85
2023-02-03T16:11:35.336Z,5.53
2023-02-03T16:14:12.341Z,6.40
2023-02-03T16:17:04.953Z,7.63
2023-02-03T16:19:41.257Z,7.00
2023-02-03T16:22:33.145Z,6.90
2023-02-03T16:25:26.268Z,8.30
2023-02-03T16:28:19.522Z,6.65
2023-02-03T16:34:38.357Z,7.60
2023-02-03T16:38:23.551Z,6.43
2023-02-03T16:41:13.762Z,6.07
2023-02-03T16:44:04.759Z,5.65
2023-02-03T16:46:56.441Z,6.82
2023-02-03T16:49:46.801Z,6.28
2023-02-03T16:55:01.386Z,6.68
2023-02-03T16:57:33.431Z,5.53
2023-02-03T17:00:06.208Z,6.05
2023-02-03T17:02:38.253Z,5.50
2023-02-03T17:05:10.356Z,6.93
2023-02-03T17:07:42.652Z,6.07
2023-02-03T17:10:14.915Z,6.43
2023-02-03T17:12:46.863Z,5.72
2023-02-03T17:15:18.853Z,6.85
2023-02-03T17:17:50.791Z,6.18
2023-02-03T17:20:22.903Z,6.72
2023-02-03T17:22:55.279Z,5.90
2023-02-03T17:25:27.718Z,5.88
2023-02-03T17:27:59.925Z,7.97
2023-02-03T17:30:35.688Z,7.50
2023-02-03T17:33:12.235Z,5.63
2023-02-03T17:35:45.600Z,7.43
2023-02-03T17:38:17.649Z,6.82
2023-02-03T17:55:22.096Z,6.13
2023-02-03T17:57:54.045Z,6.10
2023-02-03T18:00:29.272Z,5.88
2023-02-03T18:03:01.649Z,6.05
2023-02-03T18:05:34.024Z,6.50
2023-02-03T18:08:16.079Z,6.75
2023-02-03T18:10:48.690Z,7.38
2023-02-03T18:13:23.454Z,8.48
2023-02-03T18:15:59.279Z,7.90
2023-02-03T18:18:31.458Z,6.90
2023-02-03T18:21:09.202Z,6.70
2023-02-03T18:23:41.933Z,7.95
2023-02-03T18:26:13.989Z,8.27
2023-02-03T18:28:46.954Z,7.10
2023-02-03T18:31:25.544Z,5.57
2023-02-03T18:34:03.140Z,6.68
2023-02-03T18:36:35.589Z,8.02
2023-02-03T18:39:09.336Z,8.07
2023-02-03T18:41:43.644Z,7.50
2023-02-03T18:44:16.109Z,5.97
2023-02-03T18:46:55.101Z,7.40
2023-02-03T18:49:27.281Z,7.18
2023-02-03T18:51:59.412Z,8.38
2023-02-03T18:54:33.938Z,8.55
2023-02-03T18:57:06.023Z,8.25
2023-02-03T18:59:40.642Z,7.05
2023-02-03T19:02:15.858Z,9.45
2023-02-03T19:04:56.072Z,6.75
2023-02-03T19:07:28.047Z,7.65
2023-02-03T19:10:01.893Z,8.48
2023-02-03T19:12:35.787Z,7.97
2023-02-03T19:15:09.726Z,7.63
2023-02-03T19:18:40.221Z,8.80
2023-02-03T19:24:19.931Z,9.55
2023-02-03T19:26:53.329Z,10.02
2023-02-03T19:29:26.199Z,8.88
2023-02-03T19:31:58.454Z,8.07
2023-02-03T19:34:45.144Z,6.55
2023-02-03T19:37:19.015Z,10.07
2023-02-03T19:39:52.224Z,6.97
2023-02-03T19:42:24.672Z,7.97
2023-02-03T19:44:56.859Z,7.25
2023-02-03T19:47:28.864Z,7.80
2023-02-03T19:50:08.277Z,8.45
2023-02-03T19:52:40.229Z,6.83
2023-02-03T19:55:16.200Z,7.68
2023-02-03T19:57:48.545Z,8.55
2023-02-03T20:00:21.701Z,7.35
2023-02-03T20:02:54.066Z,8.82
2023-02-03T20:05:26.233Z,8.73
2023-02-03T20:07:58.244Z,7.03
2023-02-03T20:10:32.718Z,7.90
2023-02-03T20:13:05.484Z,9.18
2023-02-03T20:15:45.255Z,7.22
2023-02-03T20:18:17.668Z,7.82
2023-02-03T20:21:02.624Z,7.53
2023-02-03T20:23:36.327Z,6.75
2023-02-03T20:26:13.583Z,8.00
2023-02-03T20:28:47.709Z,6.97
2023-02-03T20:31:19.847Z,7.22
2023-02-03T20:33:53.315Z,8.23
2023-02-03T20:36:25.881Z,6.68
2023-02-03T20:38:57.805Z,8.85
2023-02-03T20:58:33.608Z,9.98
2023-02-03T21:01:30.393Z,7.60
2023-02-03T21:04:38.534Z,7.05
2023-02-03T21:07:41.593Z,7.35
2023-02-03T21:10:21.261Z,7.38
2023-02-03T21:13:22.809Z,8.13
2023-02-03T21:16:19.202Z,6.45
2023-02-03T21:26:43.970Z,7.47
2023-02-03T21:37:47.969Z,9.27
2023-02-03T21:40:31.875Z,8.25
2023-02-03T21:43:45.113Z,7.45
2023-02-03T21:49:47.587Z,7.07
2023-02-03T21:53:22.926Z,7.70
2023-02-03T21:56:39.757Z,7.57
2023-02-03T21:59:31.279Z,7.63
